Terminal Aerodrome Forecast
Issued by NWS Tampa Bay Area, FL

Home | Current Version | Previous Version | Text Only | Print | Product List | Glossary On
Versions: 1 2 3 4 5 6 7 8 9 10 11 12 13 14 15 16 17 18 19 20 21
000
FTUS42 KTBW 040500
TAFSRQ
TAF
KSRQ 040533Z 0406/0506 VRB03KT P6SM SCT250
     FM040800 13004KT 6SM BR SCT010
      TEMPO 0409/0413 3SM BR BKN010
     FM041400 16012KT P6SM SCT015
     FM041700 19015KT P6SM SCT035
     FM050300 16005KT P6SM SCT250=

USA.gov is the U.S. government's official web portal to all federal, state and local government web resources and services.